sensor_id;sensor_type;location;lat;lon;timestamp;P1;durP1;ratioP1;P2;durP2;ratioP2
75426;SDS011;64007;50.632;13.700;2023-04-12T00:01:31;4.32;;;1.70;;
75426;SDS011;64007;50.632;13.700;2023-04-12T00:03:56;4.85;;;1.90;;
75426;SDS011;64007;50.632;13.700;2023-04-12T00:06:22;4.20;;;1.30;;
75426;SDS011;64007;50.632;13.700;2023-04-12T00:08:52;7.47;;;1.25;;
75426;SDS011;64007;50.632;13.700;2023-04-12T00:11:18;4.53;;;1.30;;
75426;SDS011;64007;50.632;13.700;2023-04-12T00:13:44;2.17;;;1.38;;
75426;SDS011;64007;50.632;13.700;2023-04-12T00:16:09;3.47;;;1.33;;
75426;SDS011;64007;50.632;13.700;2023-04-12T00:18:39;5.22;;;1.83;;
75426;SDS011;64007;50.632;13.700;2023-04-12T00:21:06;4.80;;;2.40;;
75426;SDS011;64007;50.632;13.700;2023-04-12T00:23:33;8.50;;;3.08;;
75426;SDS011;64007;50.632;13.700;2023-04-12T00:25:58;7.75;;;2.88;;
75426;SDS011;64007;50.632;13.700;2023-04-12T00:28:24;9.20;;;3.50;;
75426;SDS011;64007;50.632;13.700;2023-04-12T00:30:50;6.32;;;2.50;;
75426;SDS011;64007;50.632;13.700;2023-04-12T00:33:16;7.53;;;3.13;;
75426;SDS011;64007;50.632;13.700;2023-04-12T00:35:41;5.82;;;3.20;;
75426;SDS011;64007;50.632;13.700;2023-04-12T00:38:07;6.70;;;2.75;;
75426;SDS011;64007;50.632;13.700;2023-04-12T00:40:34;7.30;;;2.85;;
75426;SDS011;64007;50.632;13.700;2023-04-12T00:43:02;6.53;;;2.20;;
75426;SDS011;64007;50.632;13.700;2023-04-12T00:45:28;5.03;;;2.10;;
75426;SDS011;64007;50.632;13.700;2023-04-12T00:47:54;6.28;;;2.15;;
75426;SDS011;64007;50.632;13.700;2023-04-12T00:50:20;4.78;;;1.90;;
75426;SDS011;64007;50.632;13.700;2023-04-12T00:52:47;5.60;;;1.60;;
75426;SDS011;64007;50.632;13.700;2023-04-12T00:55:13;6.20;;;2.10;;
75426;SDS011;64007;50.632;13.700;2023-04-12T00:57:40;3.95;;;1.52;;
75426;SDS011;64007;50.632;13.700;2023-04-12T01:00:07;4.28;;;1.30;;
75426;SDS011;64007;50.632;13.700;2023-04-12T01:02:41;2.78;;;1.08;;
75426;SDS011;64007;50.632;13.700;2023-04-12T01:05:18;6.13;;;1.38;;
75426;SDS011;64007;50.632;13.700;2023-04-12T01:07:54;2.30;;;0.80;;
75426;SDS011;64007;50.632;13.700;2023-04-12T01:10:35;7.70;;;1.20;;
75426;SDS011;64007;50.632;13.700;2023-04-12T01:15:35;2.03;;;1.13;;
75426;SDS011;64007;50.632;13.700;2023-04-12T01:18:07;6.95;;;1.20;;
75426;SDS011;64007;50.632;13.700;2023-04-12T01:20:41;5.28;;;1.33;;
75426;SDS011;64007;50.632;13.700;2023-04-12T01:23:16;4.22;;;1.20;;
75426;SDS011;64007;50.632;13.700;2023-04-12T01:28:33;2.17;;;0.80;;
75426;SDS011;64007;50.632;13.700;2023-04-12T01:31:02;1.58;;;0.88;;
75426;SDS011;64007;50.632;13.700;2023-04-12T01:33:31;4.07;;;0.88;;
75426;SDS011;64007;50.632;13.700;2023-04-12T01:36:02;1.17;;;0.70;;
75426;SDS011;64007;50.632;13.700;2023-04-12T01:38:35;5.05;;;0.85;;
75426;SDS011;64007;50.632;13.700;2023-04-12T01:41:00;2.15;;;0.80;;
75426;SDS011;64007;50.632;13.700;2023-04-12T01:43:27;1.88;;;0.80;;
75426;SDS011;64007;50.632;13.700;2023-04-12T01:45:52;1.20;;;0.70;;
75426;SDS011;64007;50.632;13.700;2023-04-12T01:48:18;2.50;;;1.00;;
75426;SDS011;64007;50.632;13.700;2023-04-12T01:56:12;7.13;;;1.08;;
75426;SDS011;64007;50.632;13.700;2023-04-12T01:58:41;2.85;;;0.80;;
75426;SDS011;64007;50.632;13.700;2023-04-12T02:01:08;2.03;;;0.60;;
75426;SDS011;64007;50.632;13.700;2023-04-12T02:03:38;0.98;;;0.70;;
75426;SDS011;64007;50.632;13.700;2023-04-12T02:06:06;2.58;;;0.85;;
75426;SDS011;64007;50.632;13.700;2023-04-12T02:08:34;1.13;;;0.60;;
75426;SDS011;64007;50.632;13.700;2023-04-12T02:11:00;4.75;;;0.80;;
75426;SDS011;64007;50.632;13.700;2023-04-12T02:13:32;2.15;;;0.60;;
75426;SDS011;64007;50.632;13.700;2023-04-12T02:15:57;5.07;;;0.90;;
75426;SDS011;64007;50.632;13.700;2023-04-12T02:18:23;4.40;;;1.00;;
75426;SDS011;64007;50.632;13.700;2023-04-12T02:20:49;2.35;;;0.90;;
75426;SDS011;64007;50.632;13.700;2023-04-12T02:23:15;2.58;;;0.77;;
75426;SDS011;64007;50.632;13.700;2023-04-12T02:25:40;5.78;;;0.95;;
75426;SDS011;64007;50.632;13.700;2023-04-12T02:28:06;1.83;;;0.88;;
75426;SDS011;64007;50.632;13.700;2023-04-12T02:30:32;4.00;;;1.00;;
75426;SDS011;64007;50.632;13.700;2023-04-12T02:32:58;2.22;;;1.00;;
75426;SDS011;64007;50.632;13.700;2023-04-12T02:35:23;2.03;;;0.93;;
75426;SDS011;64007;50.632;13.700;2023-04-12T02:37:49;3.28;;;1.02;;
75426;SDS011;64007;50.632;13.700;2023-04-12T02:40:18;2.33;;;0.80;;
75426;SDS011;64007;50.632;13.700;2023-04-12T02:42:44;3.90;;;1.10;;
75426;SDS011;64007;50.632;13.700;2023-04-12T02:45:10;1.58;;;1.00;;
75426;SDS011;64007;50.632;13.700;2023-04-12T02:47:37;3.65;;;1.05;;
75426;SDS011;64007;50.632;13.700;2023-04-12T02:50:03;2.28;;;0.98;;
75426;SDS011;64007;50.632;13.700;2023-04-12T02:52:29;5.35;;;1.40;;
75426;SDS011;64007;50.632;13.700;2023-04-12T02:54:57;2.83;;;1.20;;
75426;SDS011;64007;50.632;13.700;2023-04-12T02:57:23;2.22;;;1.05;;
75426;SDS011;64007;50.632;13.700;2023-04-12T02:59:51;2.28;;;1.02;;
75426;SDS011;64007;50.632;13.700;2023-04-12T03:02:18;3.20;;;1.17;;
75426;SDS011;64007;50.632;13.700;2023-04-12T03:04:45;2.88;;;1.30;;
75426;SDS011;64007;50.632;13.700;2023-04-12T03:07:12;2.08;;;0.93;;
75426;SDS011;64007;50.632;13.700;2023-04-12T03:09:38;2.28;;;1.13;;
75426;SDS011;64007;50.632;13.700;2023-04-12T03:12:07;2.28;;;1.10;;
75426;SDS011;64007;50.632;13.700;2023-04-12T03:14:32;3.67;;;1.38;;
75426;SDS011;64007;50.632;13.700;2023-04-12T03:16:58;4.07;;;1.15;;
75426;SDS011;64007;50.632;13.700;2023-04-12T03:19:24;3.17;;;1.00;;
75426;SDS011;64007;50.632;13.700;2023-04-12T03:21:50;2.28;;;1.08;;
75426;SDS011;64007;50.632;13.700;2023-04-12T03:24:15;5.57;;;1.58;;
75426;SDS011;64007;50.632;13.700;2023-04-12T03:26:41;4.78;;;1.20;;
75426;SDS011;64007;50.632;13.700;2023-04-12T03:29:08;3.70;;;1.20;;
75426;SDS011;64007;50.632;13.700;2023-04-12T03:31:34;2.80;;;1.20;;
75426;SDS011;64007;50.632;13.700;2023-04-12T03:34:02;1.73;;;1.25;;
75426;SDS011;64007;50.632;13.700;2023-04-12T03:36:28;4.90;;;1.70;;
75426;SDS011;64007;50.632;13.700;2023-04-12T03:38:54;3.67;;;1.23;;
75426;SDS011;64007;50.632;13.700;2023-04-12T03:41:20;5.75;;;1.35;;
75426;SDS011;64007;50.632;13.700;2023-04-12T03:43:47;6.55;;;1.35;;
75426;SDS011;64007;50.632;13.700;2023-04-12T03:46:13;4.18;;;1.58;;
75426;SDS011;64007;50.632;13.700;2023-04-12T03:48:39;2.60;;;1.15;;
75426;SDS011;64007;50.632;13.700;2023-04-12T03:51:06;3.78;;;1.20;;
75426;SDS011;64007;50.632;13.700;2023-04-12T03:53:39;3.22;;;1.50;;
75426;SDS011;64007;50.632;13.700;2023-04-12T03:56:06;7.63;;;1.65;;
75426;SDS011;64007;50.632;13.700;2023-04-12T03:58:32;4.50;;;1.25;;
75426;SDS011;64007;50.632;13.700;2023-04-12T04:01:03;4.53;;;1.20;;
75426;SDS011;64007;50.632;13.700;2023-04-12T04:03:33;5.45;;;1.50;;
75426;SDS011;64007;50.632;13.700;2023-04-12T04:05:59;3.35;;;1.33;;
75426;SDS011;64007;50.632;13.700;2023-04-12T04:08:26;2.13;;;1.02;;
75426;SDS011;64007;50.632;13.700;2023-04-12T04:10:55;3.88;;;1.25;;
75426;SDS011;64007;50.632;13.700;2023-04-12T04:13:21;3.58;;;1.10;;
75426;SDS011;64007;50.632;13.700;2023-04-12T04:15:49;2.75;;;1.13;;
75426;SDS011;64007;50.632;13.700;2023-04-12T04:18:16;4.13;;;1.35;;
75426;SDS011;64007;50.632;13.700;2023-04-12T04:20:42;4.05;;;1.30;;
75426;SDS011;64007;50.632;13.700;2023-04-12T04:23:07;3.05;;;1.13;;
75426;SDS011;64007;50.632;13.700;2023-04-12T04:25:36;3.05;;;1.10;;
75426;SDS011;64007;50.632;13.700;2023-04-12T04:28:06;2.13;;;1.05;;
75426;SDS011;64007;50.632;13.700;2023-04-12T04:30:33;5.13;;;1.05;;
75426;SDS011;64007;50.632;13.700;2023-04-12T04:33:03;5.55;;;1.30;;
75426;SDS011;64007;50.632;13.700;2023-04-12T04:35:29;2.72;;;1.30;;
75426;SDS011;64007;50.632;13.700;2023-04-12T04:37:55;10.95;;;1.98;;
75426;SDS011;64007;50.632;13.700;2023-04-12T04:40:22;7.85;;;1.70;;
75426;SDS011;64007;50.632;13.700;2023-04-12T04:42:49;4.53;;;1.60;;
75426;SDS011;64007;50.632;13.700;2023-04-12T04:45:22;4.38;;;1.20;;
75426;SDS011;64007;50.632;13.700;2023-04-12T04:47:52;2.83;;;1.25;;
75426;SDS011;64007;50.632;13.700;2023-04-12T04:50:19;4.20;;;1.45;;
75426;SDS011;64007;50.632;13.700;2023-04-12T04:52:48;10.02;;;1.70;;
75426;SDS011;64007;50.632;13.700;2023-04-12T04:55:15;7.38;;;1.73;;
75426;SDS011;64007;50.632;13.700;2023-04-12T04:57:41;5.60;;;1.58;;
75426;SDS011;64007;50.632;13.700;2023-04-12T05:00:08;2.63;;;1.30;;
75426;SDS011;64007;50.632;13.700;2023-04-12T05:02:41;2.40;;;1.38;;
75426;SDS011;64007;50.632;13.700;2023-04-12T05:05:08;7.22;;;1.67;;
75426;SDS011;64007;50.632;13.700;2023-04-12T05:07:36;4.28;;;1.90;;
75426;SDS011;64007;50.632;13.700;2023-04-12T05:10:03;2.53;;;1.50;;
75426;SDS011;64007;50.632;13.700;2023-04-12T05:12:29;10.90;;;1.58;;
75426;SDS011;64007;50.632;13.700;2023-04-12T05:14:56;2.13;;;1.13;;
75426;SDS011;64007;50.632;13.700;2023-04-12T05:17:22;5.00;;;1.35;;
75426;SDS011;64007;50.632;13.700;2023-04-12T05:19:48;4.13;;;1.23;;
75426;SDS011;64007;50.632;13.700;2023-04-12T05:22:14;5.75;;;2.10;;
75426;SDS011;64007;50.632;13.700;2023-04-12T05:24:44;18.55;;;7.55;;
75426;SDS011;64007;50.632;13.700;2023-04-12T05:27:10;98.53;;;39.13;;
75426;SDS011;64007;50.632;13.700;2023-04-12T05:29:36;205.65;;;90.32;;
75426;SDS011;64007;50.632;13.700;2023-04-12T05:32:02;110.13;;;50.53;;
75426;SDS011;64007;50.632;13.700;2023-04-12T05:34:28;53.80;;;25.92;;
75426;SDS011;64007;50.632;13.700;2023-04-12T05:36:54;28.30;;;12.02;;
75426;SDS011;64007;50.632;13.700;2023-04-12T05:39:21;15.45;;;7.72;;
75426;SDS011;64007;50.632;13.700;2023-04-12T05:41:46;10.68;;;4.70;;
75426;SDS011;64007;50.632;13.700;2023-04-12T05:44:13;9.02;;;3.50;;
75426;SDS011;64007;50.632;13.700;2023-04-12T05:46:38;8.80;;;3.78;;
75426;SDS011;64007;50.632;13.700;2023-04-12T05:49:04;9.07;;;3.70;;
75426;SDS011;64007;50.632;13.700;2023-04-12T05:51:30;10.27;;;3.92;;
75426;SDS011;64007;50.632;13.700;2023-04-12T05:53:56;10.05;;;4.90;;
75426;SDS011;64007;50.632;13.700;2023-04-12T05:56:22;14.05;;;5.45;;
75426;SDS011;64007;50.632;13.700;2023-04-12T05:58:47;11.10;;;4.63;;
75426;SDS011;64007;50.632;13.700;2023-04-12T06:01:13;7.25;;;3.60;;
75426;SDS011;64007;50.632;13.700;2023-04-12T06:03:41;10.98;;;4.07;;
75426;SDS011;64007;50.632;13.700;2023-04-12T06:06:07;14.45;;;4.18;;
75426;SDS011;64007;50.632;13.700;2023-04-12T06:08:34;12.60;;;5.35;;
75426;SDS011;64007;50.632;13.700;2023-04-12T06:11:02;11.05;;;4.57;;
75426;SDS011;64007;50.632;13.700;2023-04-12T06:13:29;8.20;;;4.05;;
75426;SDS011;64007;50.632;13.700;2023-04-12T06:15:55;8.95;;;3.75;;
75426;SDS011;64007;50.632;13.700;2023-04-12T06:18:20;13.93;;;4.45;;
75426;SDS011;64007;50.632;13.700;2023-04-12T06:20:46;11.27;;;4.78;;
75426;SDS011;64007;50.632;13.700;2023-04-12T06:23:12;10.25;;;4.10;;
75426;SDS011;64007;50.632;13.700;2023-04-12T06:25:37;12.05;;;4.80;;
75426;SDS011;64007;50.632;13.700;2023-04-12T06:28:03;9.45;;;4.15;;
75426;SDS011;64007;50.632;13.700;2023-04-12T06:30:29;10.75;;;4.28;;
75426;SDS011;64007;50.632;13.700;2023-04-12T06:32:55;9.75;;;4.95;;
75426;SDS011;64007;50.632;13.700;2023-04-12T06:35:20;8.20;;;4.72;;
75426;SDS011;64007;50.632;13.700;2023-04-12T06:37:47;9.68;;;4.90;;
75426;SDS011;64007;50.632;13.700;2023-04-12T06:40:13;11.80;;;6.35;;
75426;SDS011;64007;50.632;13.700;2023-04-12T06:42:39;13.40;;;5.70;;
75426;SDS011;64007;50.632;13.700;2023-04-12T06:45:04;9.85;;;5.00;;
75426;SDS011;64007;50.632;13.700;2023-04-12T06:47:31;9.00;;;4.72;;
75426;SDS011;64007;50.632;13.700;2023-04-12T06:49:57;8.73;;;4.60;;
75426;SDS011;64007;50.632;13.700;2023-04-12T06:52:23;8.57;;;4.60;;
75426;SDS011;64007;50.632;13.700;2023-04-12T06:54:52;10.82;;;5.20;;
75426;SDS011;64007;50.632;13.700;2023-04-12T06:57:18;8.68;;;4.55;;
75426;SDS011;64007;50.632;13.700;2023-04-12T06:59:44;13.68;;;5.15;;
75426;SDS011;64007;50.632;13.700;2023-04-12T07:02:10;12.05;;;4.70;;
75426;SDS011;64007;50.632;13.700;2023-04-12T07:04:36;11.88;;;5.38;;
75426;SDS011;64007;50.632;13.700;2023-04-12T07:07:01;9.25;;;5.57;;
75426;SDS011;64007;50.632;13.700;2023-04-12T07:09:29;13.15;;;5.05;;
75426;SDS011;64007;50.632;13.700;2023-04-12T07:11:57;9.32;;;4.57;;
75426;SDS011;64007;50.632;13.700;2023-04-12T07:14:23;7.20;;;3.47;;
75426;SDS011;64007;50.632;13.700;2023-04-12T07:16:49;9.68;;;4.30;;
75426;SDS011;64007;50.632;13.700;2023-04-12T07:19:14;7.65;;;4.32;;
75426;SDS011;64007;50.632;13.700;2023-04-12T07:21:41;9.93;;;3.60;;
75426;SDS011;64007;50.632;13.700;2023-04-12T07:24:06;12.20;;;4.10;;
75426;SDS011;64007;50.632;13.700;2023-04-12T07:26:32;8.68;;;4.22;;
75426;SDS011;64007;50.632;13.700;2023-04-12T07:28:58;10.90;;;4.60;;
75426;SDS011;64007;50.632;13.700;2023-04-12T07:31:24;7.85;;;3.90;;
75426;SDS011;64007;50.632;13.700;2023-04-12T07:33:49;8.77;;;4.10;;
75426;SDS011;64007;50.632;13.700;2023-04-12T07:36:15;15.52;;;4.45;;
75426;SDS011;64007;50.632;13.700;2023-04-12T07:38:45;10.13;;;4.40;;
75426;SDS011;64007;50.632;13.700;2023-04-12T07:41:11;9.77;;;4.18;;
75426;SDS011;64007;50.632;13.700;2023-04-12T07:43:36;8.65;;;4.00;;
75426;SDS011;64007;50.632;13.700;2023-04-12T07:46:02;9.20;;;4.22;;
75426;SDS011;64007;50.632;13.700;2023-04-12T07:48:32;13.18;;;4.93;;
75426;SDS011;64007;50.632;13.700;2023-04-12T07:50:58;12.52;;;4.15;;
75426;SDS011;64007;50.632;13.700;2023-04-12T07:53:26;8.95;;;3.65;;
75426;SDS011;64007;50.632;13.700;2023-04-12T07:55:53;8.75;;;4.22;;
75426;SDS011;64007;50.632;13.700;2023-04-12T07:58:20;9.93;;;4.43;;
75426;SDS011;64007;50.632;13.700;2023-04-12T08:00:47;6.85;;;2.83;;
75426;SDS011;64007;50.632;13.700;2023-04-12T08:03:14;11.27;;;3.00;;
75426;SDS011;64007;50.632;13.700;2023-04-12T08:05:41;20.17;;;3.13;;
75426;SDS011;64007;50.632;13.700;2023-04-12T08:08:08;7.60;;;2.50;;
75426;SDS011;64007;50.632;13.700;2023-04-12T08:10:35;9.43;;;2.70;;
75426;SDS011;64007;50.632;13.700;2023-04-12T08:13:04;11.55;;;2.95;;
75426;SDS011;64007;50.632;13.700;2023-04-12T08:15:31;8.20;;;2.50;;
75426;SDS011;64007;50.632;13.700;2023-04-12T08:17:56;5.70;;;2.33;;
75426;SDS011;64007;50.632;13.700;2023-04-12T08:20:22;8.05;;;2.20;;
75426;SDS011;64007;50.632;13.700;2023-04-12T08:22:48;7.90;;;2.28;;
75426;SDS011;64007;50.632;13.700;2023-04-12T08:25:14;5.28;;;2.45;;
75426;SDS011;64007;50.632;13.700;2023-04-12T08:27:41;8.13;;;2.30;;
75426;SDS011;64007;50.632;13.700;2023-04-12T08:30:08;14.35;;;2.63;;
75426;SDS011;64007;50.632;13.700;2023-04-12T08:32:35;7.78;;;2.25;;
75426;SDS011;64007;50.632;13.700;2023-04-12T08:35:04;5.75;;;2.53;;
75426;SDS011;64007;50.632;13.700;2023-04-12T08:37:30;7.47;;;2.28;;
75426;SDS011;64007;50.632;13.700;2023-04-12T08:40:01;12.07;;;2.53;;
75426;SDS011;64007;50.632;13.700;2023-04-12T08:42:30;5.32;;;2.60;;
75426;SDS011;64007;50.632;13.700;2023-04-12T08:44:58;8.23;;;2.00;;
75426;SDS011;64007;50.632;13.700;2023-04-12T08:47:23;6.60;;;1.90;;
75426;SDS011;64007;50.632;13.700;2023-04-12T08:49:50;8.48;;;2.55;;
75426;SDS011;64007;50.632;13.700;2023-04-12T08:52:15;6.85;;;2.60;;
75426;SDS011;64007;50.632;13.700;2023-04-12T08:54:41;6.28;;;2.85;;
75426;SDS011;64007;50.632;13.700;2023-04-12T08:57:07;8.68;;;3.47;;
75426;SDS011;64007;50.632;13.700;2023-04-12T08:59:36;5.90;;;2.55;;
75426;SDS011;64007;50.632;13.700;2023-04-12T09:02:03;7.32;;;2.70;;
75426;SDS011;64007;50.632;13.700;2023-04-12T09:04:29;6.57;;;2.45;;
75426;SDS011;64007;50.632;13.700;2023-04-12T09:06:54;7.47;;;2.53;;
75426;SDS011;64007;50.632;13.700;2023-04-12T09:09:39;9.65;;;2.15;;
75426;SDS011;64007;50.632;13.700;2023-04-12T09:12:12;5.97;;;2.38;;
75426;SDS011;64007;50.632;13.700;2023-04-12T09:14:39;3.92;;;2.13;;
75426;SDS011;64007;50.632;13.700;2023-04-12T09:17:20;6.38;;;2.20;;
75426;SDS011;64007;50.632;13.700;2023-04-12T09:22:16;5.75;;;2.65;;
75426;SDS011;64007;50.632;13.700;2023-04-12T09:24:46;4.43;;;2.05;;
75426;SDS011;64007;50.632;13.700;2023-04-12T09:27:13;6.00;;;2.53;;
75426;SDS011;64007;50.632;13.700;2023-04-12T09:29:40;16.00;;;2.60;;
75426;SDS011;64007;50.632;13.700;2023-04-12T09:32:06;4.40;;;2.10;;
75426;SDS011;64007;50.632;13.700;2023-04-12T09:34:33;10.73;;;2.80;;
75426;SDS011;64007;50.632;13.700;2023-04-12T09:37:12;8.25;;;2.53;;
75426;SDS011;64007;50.632;13.700;2023-04-12T09:39:41;8.13;;;2.97;;
75426;SDS011;64007;50.632;13.700;2023-04-12T09:42:07;5.65;;;2.55;;
75426;SDS011;64007;50.632;13.700;2023-04-12T09:44:37;9.05;;;2.20;;
75426;SDS011;64007;50.632;13.700;2023-04-12T09:47:03;9.43;;;2.53;;
75426;SDS011;64007;50.632;13.700;2023-04-12T09:52:03;8.55;;;2.50;;
75426;SDS011;64007;50.632;13.700;2023-04-12T09:54:29;6.65;;;2.42;;
75426;SDS011;64007;50.632;13.700;2023-04-12T09:57:00;10.02;;;2.88;;
75426;SDS011;64007;50.632;13.700;2023-04-12T09:59:27;4.20;;;2.10;;
75426;SDS011;64007;50.632;13.700;2023-04-12T10:01:56;8.98;;;2.40;;
75426;SDS011;64007;50.632;13.700;2023-04-12T10:04:23;7.78;;;2.47;;
75426;SDS011;64007;50.632;13.700;2023-04-12T10:06:50;12.57;;;2.60;;
75426;SDS011;64007;50.632;13.700;2023-04-12T10:09:16;7.60;;;2.85;;
75426;SDS011;64007;50.632;13.700;2023-04-12T10:11:42;9.23;;;2.42;;
75426;SDS011;64007;50.632;13.700;2023-04-12T10:14:09;12.38;;;3.45;;
75426;SDS011;64007;50.632;13.700;2023-04-12T10:16:36;5.25;;;2.55;;
75426;SDS011;64007;50.632;13.700;2023-04-12T10:19:05;11.80;;;2.97;;
75426;SDS011;64007;50.632;13.700;2023-04-12T10:21:32;13.82;;;2.85;;
75426;SDS011;64007;50.632;13.700;2023-04-12T10:23:58;8.98;;;2.50;;
75426;SDS011;64007;50.632;13.700;2023-04-12T10:26:25;13.88;;;2.92;;
75426;SDS011;64007;50.632;13.700;2023-04-12T10:31:49;16.85;;;3.00;;
75426;SDS011;64007;50.632;13.700;2023-04-12T10:34:16;6.55;;;2.38;;
75426;SDS011;64007;50.632;13.700;2023-04-12T10:37:02;9.35;;;2.95;;
75426;SDS011;64007;50.632;13.700;2023-04-12T10:39:41;8.02;;;2.72;;
75426;SDS011;64007;50.632;13.700;2023-04-12T10:42:14;9.07;;;2.92;;
75426;SDS011;64007;50.632;13.700;2023-04-12T10:44:41;13.77;;;3.35;;
75426;SDS011;64007;50.632;13.700;2023-04-12T10:47:07;11.15;;;3.53;;
75426;SDS011;64007;50.632;13.700;2023-04-12T10:49:34;6.45;;;2.70;;
75426;SDS011;64007;50.632;13.700;2023-04-12T10:56:51;6.43;;;2.30;;
75426;SDS011;64007;50.632;13.700;2023-04-12T10:59:17;6.07;;;2.88;;
75426;SDS011;64007;50.632;13.700;2023-04-12T11:04:37;8.35;;;2.70;;
75426;SDS011;64007;50.632;13.700;2023-04-12T11:07:07;8.93;;;2.88;;
75426;SDS011;64007;50.632;13.700;2023-04-12T11:14:33;7.15;;;2.60;;
75426;SDS011;64007;50.632;13.700;2023-04-12T11:19:33;7.32;;;2.85;;
75426;SDS011;64007;50.632;13.700;2023-04-12T11:22:02;10.55;;;2.28;;
75426;SDS011;64007;50.632;13.700;2023-04-12T11:24:29;6.80;;;2.00;;
75426;SDS011;64007;50.632;13.700;2023-04-12T11:26:55;4.95;;;2.17;;
75426;SDS011;64007;50.632;13.700;2023-04-12T11:29:22;6.53;;;2.17;;
75426;SDS011;64007;50.632;13.700;2023-04-12T11:31:48;5.65;;;2.30;;
75426;SDS011;64007;50.632;13.700;2023-04-12T11:34:15;10.18;;;2.40;;
75426;SDS011;64007;50.632;13.700;2023-04-12T11:36:43;4.88;;;2.10;;
75426;SDS011;64007;50.632;13.700;2023-04-12T11:39:10;6.82;;;1.85;;
75426;SDS011;64007;50.632;13.700;2023-04-12T11:41:36;5.78;;;1.90;;
75426;SDS011;64007;50.632;13.700;2023-04-12T11:44:02;5.57;;;1.77;;
75426;SDS011;64007;50.632;13.700;2023-04-12T11:46:34;7.90;;;1.85;;
75426;SDS011;64007;50.632;13.700;2023-04-12T11:49:00;7.85;;;2.30;;
75426;SDS011;64007;50.632;13.700;2023-04-12T11:51:26;24.77;;;2.08;;
75426;SDS011;64007;50.632;13.700;2023-04-12T11:53:54;4.55;;;2.00;;
75426;SDS011;64007;50.632;13.700;2023-04-12T11:56:21;7.90;;;1.80;;
75426;SDS011;64007;50.632;13.700;2023-04-12T11:58:47;7.18;;;1.83;;
75426;SDS011;64007;50.632;13.700;2023-04-12T12:01:21;4.97;;;2.05;;
75426;SDS011;64007;50.632;13.700;2023-04-12T12:03:48;8.80;;;2.08;;
75426;SDS011;64007;50.632;13.700;2023-04-12T12:06:14;6.93;;;2.08;;
75426;SDS011;64007;50.632;13.700;2023-04-12T12:08:41;9.48;;;2.13;;
75426;SDS011;64007;50.632;13.700;2023-04-12T12:11:07;9.43;;;1.73;;
75426;SDS011;64007;50.632;13.700;2023-04-12T12:16:28;10.98;;;1.63;;
75426;SDS011;64007;50.632;13.700;2023-04-12T12:18:55;6.95;;;1.40;;
75426;SDS011;64007;50.632;13.700;2023-04-12T12:21:21;5.70;;;1.60;;
75426;SDS011;64007;50.632;13.700;2023-04-12T12:23:47;6.57;;;1.55;;
75426;SDS011;64007;50.632;13.700;2023-04-12T12:26:20;6.95;;;1.60;;
75426;SDS011;64007;50.632;13.700;2023-04-12T12:28:51;4.78;;;1.38;;
75426;SDS011;64007;50.632;13.700;2023-04-12T12:31:19;8.65;;;1.60;;
75426;SDS011;64007;50.632;13.700;2023-04-12T12:33:47;7.47;;;1.80;;
75426;SDS011;64007;50.632;13.700;2023-04-12T12:36:12;3.97;;;1.10;;
75426;SDS011;64007;50.632;13.700;2023-04-12T12:41:21;4.95;;;1.35;;
75426;SDS011;64007;50.632;13.700;2023-04-12T12:43:49;7.00;;;1.83;;
75426;SDS011;64007;50.632;13.700;2023-04-12T12:46:16;4.10;;;1.33;;
75426;SDS011;64007;50.632;13.700;2023-04-12T12:48:44;7.75;;;1.83;;
75426;SDS011;64007;50.632;13.700;2023-04-12T12:51:10;9.35;;;1.42;;
75426;SDS011;64007;50.632;13.700;2023-04-12T12:53:40;5.63;;;1.73;;
75426;SDS011;64007;50.632;13.700;2023-04-12T12:56:09;5.85;;;1.33;;
75426;SDS011;64007;50.632;13.700;2023-04-12T12:58:36;5.40;;;1.15;;
75426;SDS011;64007;50.632;13.700;2023-04-12T13:01:02;8.95;;;1.45;;
75426;SDS011;64007;50.632;13.700;2023-04-12T13:03:29;6.43;;;1.42;;
75426;SDS011;64007;50.632;13.700;2023-04-12T13:05:55;3.63;;;1.13;;
75426;SDS011;64007;50.632;13.700;2023-04-12T13:08:22;6.88;;;1.25;;
75426;SDS011;64007;50.632;13.700;2023-04-12T13:10:48;4.65;;;1.30;;
75426;SDS011;64007;50.632;13.700;2023-04-12T13:13:14;6.95;;;1.20;;
75426;SDS011;64007;50.632;13.700;2023-04-12T13:15:40;14.88;;;1.50;;
75426;SDS011;64007;50.632;13.700;2023-04-12T13:18:06;7.35;;;1.48;;
75426;SDS011;64007;50.632;13.700;2023-04-12T13:20:31;4.00;;;1.20;;
75426;SDS011;64007;50.632;13.700;2023-04-12T13:22:58;8.45;;;1.80;;
75426;SDS011;64007;50.632;13.700;2023-04-12T13:25:24;2.72;;;1.35;;
75426;SDS011;64007;50.632;13.700;2023-04-12T13:27:50;2.70;;;1.52;;
75426;SDS011;64007;50.632;13.700;2023-04-12T13:30:17;5.03;;;1.35;;
75426;SDS011;64007;50.632;13.700;2023-04-12T13:32:43;7.18;;;1.55;;
75426;SDS011;64007;50.632;13.700;2023-04-12T13:35:09;5.75;;;1.40;;
75426;SDS011;64007;50.632;13.700;2023-04-12T13:37:35;4.80;;;1.77;;
75426;SDS011;64007;50.632;13.700;2023-04-12T13:40:01;5.18;;;1.52;;
75426;SDS011;64007;50.632;13.700;2023-04-12T13:42:28;5.95;;;1.92;;
75426;SDS011;64007;50.632;13.700;2023-04-12T13:44:54;3.35;;;1.35;;
75426;SDS011;64007;50.632;13.700;2023-04-12T13:47:20;4.47;;;1.60;;
75426;SDS011;64007;50.632;13.700;2023-04-12T13:49:46;4.85;;;1.70;;
75426;SDS011;64007;50.632;13.700;2023-04-12T13:52:12;4.22;;;1.45;;
75426;SDS011;64007;50.632;13.700;2023-04-12T13:54:38;4.53;;;1.42;;
75426;SDS011;64007;50.632;13.700;2023-04-12T13:57:05;5.78;;;1.70;;
75426;SDS011;64007;50.632;13.700;2023-04-12T13:59:31;4.90;;;1.55;;
75426;SDS011;64007;50.632;13.700;2023-04-12T14:01:57;12.35;;;6.68;;
75426;SDS011;64007;50.632;13.700;2023-04-12T14:04:22;6.78;;;2.20;;
75426;SDS011;64007;50.632;13.700;2023-04-12T14:06:48;4.78;;;2.63;;
75426;SDS011;64007;50.632;13.700;2023-04-12T14:09:26;8.73;;;2.60;;
75426;SDS011;64007;50.632;13.700;2023-04-12T14:11:54;12.60;;;2.75;;
75426;SDS011;64007;50.632;13.700;2023-04-12T14:14:21;7.88;;;2.60;;
75426;SDS011;64007;50.632;13.700;2023-04-12T14:16:51;5.63;;;2.22;;
75426;SDS011;64007;50.632;13.700;2023-04-12T14:19:19;11.00;;;3.03;;
75426;SDS011;64007;50.632;13.700;2023-04-12T14:21:46;4.50;;;2.55;;
75426;SDS011;64007;50.632;13.700;2023-04-12T14:24:12;6.63;;;3.25;;
75426;SDS011;64007;50.632;13.700;2023-04-12T14:26:38;7.72;;;2.92;;
75426;SDS011;64007;50.632;13.700;2023-04-12T14:29:05;6.43;;;3.35;;
75426;SDS011;64007;50.632;13.700;2023-04-12T14:31:31;6.43;;;2.53;;
75426;SDS011;64007;50.632;13.700;2023-04-12T14:33:57;7.97;;;3.42;;
75426;SDS011;64007;50.632;13.700;2023-04-12T14:36:22;6.78;;;2.90;;
75426;SDS011;64007;50.632;13.700;2023-04-12T14:38:48;9.18;;;2.95;;
75426;SDS011;64007;50.632;13.700;2023-04-12T14:41:14;6.85;;;2.95;;
75426;SDS011;64007;50.632;13.700;2023-04-12T14:43:41;7.85;;;3.00;;
75426;SDS011;64007;50.632;13.700;2023-04-12T14:46:07;6.88;;;2.97;;
75426;SDS011;64007;50.632;13.700;2023-04-12T14:48:32;8.60;;;2.83;;
75426;SDS011;64007;50.632;13.700;2023-04-12T14:50:58;7.70;;;2.90;;
75426;SDS011;64007;50.632;13.700;2023-04-12T14:53:24;4.82;;;2.47;;
75426;SDS011;64007;50.632;13.700;2023-04-12T14:55:50;8.05;;;2.60;;
75426;SDS011;64007;50.632;13.700;2023-04-12T14:58:15;9.60;;;2.80;;
75426;SDS011;64007;50.632;13.700;2023-04-12T15:00:41;7.70;;;2.83;;
75426;SDS011;64007;50.632;13.700;2023-04-12T15:03:07;6.93;;;2.40;;
75426;SDS011;64007;50.632;13.700;2023-04-12T15:05:33;8.32;;;2.58;;
75426;SDS011;64007;50.632;13.700;2023-04-12T15:08:00;3.92;;;2.17;;
75426;SDS011;64007;50.632;13.700;2023-04-12T15:10:26;5.95;;;2.28;;